Terminal Aerodrome Forecast
Issued by NWS Charleston, WV

Current Version | Previous Version | Graphics & Text | Print | Product List | Glossary On
Versions: 1 2 3 4 5 6 7 8 9 10 11 12 13 14 15 16 17 18 19 20 21 22 23 24 25 26 27 28 29 30 31 32 33
000
FTUS41 KRLX 260200 AAA
TAFCRW
TAF AMD
KCRW 260240Z 2603/2624 07002KT P6SM FEW050
     FM260600 00000KT 6SM BR SKC
     FM260800 00000KT 4SM BR SKC
     FM260900 00000KT 2SM BR FEW001
     FM261000 00000KT 1SM BR SCT001
     FM261230 VRB02KT 4SM BR SCT002
     FM261330 VRB03KT P6SM FEW045=

USA.gov is the U.S. government's official web portal to all federal, state and local government web resources and services.